createdAt,value
2023-03-24T00:01:27.802Z,100.00
2023-03-24T00:03:56.304Z,100.00
2023-03-24T00:06:26.588Z,100.00
2023-03-24T00:08:55.258Z,100.00
2023-03-24T00:11:26.418Z,100.00
2023-03-24T00:13:58.551Z,100.00
2023-03-24T00:16:27.549Z,100.00
2023-03-24T00:18:56.267Z,100.00
2023-03-24T00:21:26.246Z,100.00
2023-03-24T00:23:58.418Z,100.00
2023-03-24T00:26:30.012Z,100.00
2023-03-24T00:28:58.793Z,100.00
2023-03-24T00:31:27.555Z,100.00
2023-03-24T00:33:56.153Z,100.00
2023-03-24T00:36:26.857Z,100.00
2023-03-24T00:38:56.533Z,100.00
2023-03-24T00:41:28.893Z,100.00
2023-03-24T00:43:59.785Z,100.00
2023-03-24T00:46:29.090Z,100.00
2023-03-24T00:49:03.531Z,100.00
2023-03-24T00:51:35.047Z,100.00
2023-03-24T00:54:03.992Z,100.00
2023-03-24T00:56:40.252Z,100.00
2023-03-24T00:59:10.278Z,100.00
2023-03-24T01:01:41.278Z,100.00
2023-03-24T01:04:10.366Z,100.00
2023-03-24T01:06:39.928Z,100.00
2023-03-24T01:09:10.598Z,100.00
2023-03-24T01:11:41.813Z,100.00
2023-03-24T01:14:12.017Z,100.00
2023-03-24T01:16:40.980Z,100.00
2023-03-24T01:19:10.440Z,100.00
2023-03-24T01:21:42.295Z,100.00
2023-03-24T01:24:13.589Z,100.00
2023-03-24T01:26:43.722Z,100.00
2023-03-24T01:29:12.220Z,100.00
2023-03-24T01:31:40.906Z,100.00
2023-03-24T01:34:09.519Z,100.00
2023-03-24T01:36:38.122Z,100.00
2023-03-24T01:39:06.624Z,100.00
2023-03-24T01:41:40.438Z,100.00
2023-03-24T01:44:31.100Z,100.00
2023-03-24T01:47:00.333Z,100.00
2023-03-24T01:49:34.579Z,100.00
2023-03-24T01:52:08.685Z,100.00
2023-03-24T01:54:41.975Z,100.00
2023-03-24T01:57:16.686Z,100.00
2023-03-24T01:59:50.605Z,100.00
2023-03-24T02:02:46.067Z,100.00
2023-03-24T02:05:20.283Z,100.00
2023-03-24T02:07:53.318Z,100.00
2023-03-24T02:10:25.278Z,100.00
2023-03-24T02:12:53.835Z,99.14
2023-03-24T02:15:25.405Z,98.81
2023-03-24T02:18:06.136Z,98.07
2023-03-24T02:21:32.553Z,98.62
2023-03-24T02:24:56.162Z,98.75
2023-03-24T02:27:48.180Z,98.78
2023-03-24T02:30:59.116Z,98.72
2023-03-24T02:34:25.884Z,98.86
2023-03-24T02:37:39.728Z,98.99
2023-03-24T02:40:25.430Z,99.92
2023-03-24T02:43:21.066Z,100.00
2023-03-24T02:46:05.480Z,100.00
2023-03-24T02:48:39.281Z,100.00
2023-03-24T02:51:15.846Z,100.00
2023-03-24T02:53:56.776Z,100.00
2023-03-24T02:56:33.715Z,100.00
2023-03-24T02:59:18.771Z,100.00
2023-03-24T03:01:57.725Z,100.00
2023-03-24T03:04:46.338Z,100.00
2023-03-24T03:07:16.656Z,100.00
2023-03-24T03:09:53.145Z,100.00
2023-03-24T03:12:27.090Z,100.00
2023-03-24T03:15:01.348Z,100.00
2023-03-24T03:17:34.362Z,100.00
2023-03-24T03:20:08.686Z,100.00
2023-03-24T03:22:43.930Z,100.00
2023-03-24T03:25:15.491Z,100.00
2023-03-24T03:27:46.914Z,100.00
2023-03-24T03:30:20.908Z,100.00
2023-03-24T03:32:56.631Z,100.00
2023-03-24T03:35:31.002Z,100.00
2023-03-24T03:38:11.705Z,100.00
2023-03-24T03:40:43.167Z,100.00
2023-03-24T03:43:21.175Z,100.00
2023-03-24T03:45:49.849Z,100.00
2023-03-24T03:48:21.569Z,100.00
2023-03-24T03:50:55.250Z,100.00
2023-03-24T03:53:39.229Z,100.00
2023-03-24T03:56:08.690Z,100.00
2023-03-24T03:58:46.759Z,100.00
2023-03-24T04:01:21.532Z,100.00
2023-03-24T04:05:20.775Z,100.00
2023-03-24T04:08:19.066Z,100.00
2023-03-24T04:11:50.541Z,100.00
2023-03-24T04:15:15.732Z,100.00
2023-03-24T04:18:32.735Z,100.00
2023-03-24T04:21:28.620Z,100.00
2023-03-24T04:24:11.393Z,100.00
2023-03-24T04:26:49.717Z,100.00
2023-03-24T04:29:26.563Z,100.00
2023-03-24T04:32:03.072Z,100.00
2023-03-24T04:34:37.205Z,100.00
2023-03-24T04:37:21.721Z,100.00
2023-03-24T04:40:15.493Z,100.00
2023-03-24T04:42:48.205Z,100.00
2023-03-24T04:45:18.564Z,100.00
2023-03-24T04:47:56.873Z,100.00
2023-03-24T04:50:55.698Z,100.00
2023-03-24T04:53:25.497Z,100.00
2023-03-24T04:56:20.108Z,100.00
2023-03-24T04:59:01.651Z,100.00
2023-03-24T05:01:30.492Z,100.00
2023-03-24T05:04:19.059Z,100.00
2023-03-24T05:06:49.660Z,100.00
2023-03-24T05:09:25.865Z,100.00
2023-03-24T05:11:54.559Z,100.00
2023-03-24T05:14:24.584Z,100.00
2023-03-24T05:16:53.207Z,100.00
2023-03-24T05:19:24.098Z,100.00
2023-03-24T05:21:53.676Z,100.00
2023-03-24T05:24:22.391Z,100.00
2023-03-24T05:26:50.929Z,100.00
2023-03-24T05:29:21.247Z,100.00
2023-03-24T05:31:49.840Z,100.00
2023-03-24T05:34:24.590Z,100.00
2023-03-24T05:37:14.347Z,100.00
2023-03-24T05:39:42.674Z,100.00
2023-03-24T05:42:31.232Z,100.00
2023-03-24T05:45:02.141Z,100.00
2023-03-24T05:47:31.674Z,100.00
2023-03-24T05:50:01.454Z,100.00
2023-03-24T05:52:31.699Z,100.00
2023-03-24T05:55:13.274Z,100.00
2023-03-24T05:57:41.807Z,100.00
2023-03-24T06:00:28.204Z,100.00
2023-03-24T06:03:05.523Z,99.93
2023-03-24T06:05:50.802Z,99.89
2023-03-24T06:08:19.498Z,99.74
2023-03-24T06:10:48.493Z,99.61
2023-03-24T06:13:17.213Z,99.70
2023-03-24T06:15:48.085Z,99.17
2023-03-24T06:18:35.209Z,99.28
2023-03-24T06:21:14.539Z,98.88
2023-03-24T06:23:44.496Z,99.20
2023-03-24T06:26:16.881Z,99.11
2023-03-24T06:28:51.877Z,98.56
2023-03-24T06:31:21.597Z,98.61
2023-03-24T06:33:53.252Z,98.20
2023-03-24T06:36:25.740Z,98.26
2023-03-24T06:38:54.526Z,98.02
2023-03-24T06:41:23.355Z,97.86
2023-03-24T06:43:58.997Z,97.54
2023-03-24T06:46:27.540Z,97.17
2023-03-24T06:48:56.423Z,96.96
2023-03-24T06:51:26.260Z,96.52
2023-03-24T06:53:54.831Z,95.88
2023-03-24T06:56:24.488Z,95.46
2023-03-24T06:58:58.167Z,95.04
2023-03-24T07:01:35.158Z,94.58
2023-03-24T07:04:26.069Z,93.75
2023-03-24T07:07:38.036Z,92.95
2023-03-24T07:10:14.085Z,92.63
2023-03-24T07:12:42.770Z,91.74
2023-03-24T07:15:12.130Z,91.03
2023-03-24T07:17:42.883Z,90.54
2023-03-24T07:20:20.661Z,90.06
2023-03-24T07:22:57.672Z,89.23
2023-03-24T07:25:55.061Z,89.29
2023-03-24T07:28:41.411Z,88.56
2023-03-24T07:31:12.389Z,89.01
2023-03-24T07:33:42.604Z,88.86
2023-03-24T07:36:11.179Z,88.35
2023-03-24T07:38:42.985Z,88.93
2023-03-24T07:41:16.407Z,88.42
2023-03-24T07:43:51.856Z,88.14
2023-03-24T07:46:40.893Z,87.64
2023-03-24T07:49:19.036Z,87.42
2023-03-24T07:51:59.130Z,87.71
2023-03-24T07:54:36.628Z,87.60
2023-03-24T07:57:05.403Z,87.67
2023-03-24T07:59:34.320Z,86.88
2023-03-24T08:02:28.902Z,86.75
2023-03-24T08:05:16.603Z,86.49
2023-03-24T08:08:06.746Z,86.55
2023-03-24T08:10:36.689Z,86.38
2023-03-24T08:13:05.586Z,85.66
2023-03-24T08:15:33.977Z,85.98
2023-03-24T08:18:02.445Z,86.40
2023-03-24T08:20:30.779Z,86.24
2023-03-24T08:23:00.933Z,86.34
2023-03-24T08:25:29.321Z,86.23
2023-03-24T08:27:59.145Z,86.34
2023-03-24T08:30:28.274Z,85.60
2023-03-24T08:32:59.264Z,84.44
2023-03-24T08:35:31.409Z,84.07
2023-03-24T08:38:01.084Z,84.05
2023-03-24T08:40:31.822Z,84.30
2023-03-24T08:43:03.340Z,84.28
2023-03-24T08:45:33.557Z,84.79
2023-03-24T08:48:05.671Z,84.33
2023-03-24T08:50:37.332Z,84.23
2023-03-24T08:53:06.328Z,84.07
2023-03-24T08:55:34.807Z,83.74
2023-03-24T08:58:04.684Z,82.17
2023-03-24T09:00:33.036Z,81.59
2023-03-24T09:03:01.990Z,81.24
2023-03-24T09:05:43.853Z,81.58
2023-03-24T09:08:13.994Z,80.46
2023-03-24T09:10:43.922Z,80.05
2023-03-24T09:13:14.190Z,79.69
2023-03-24T09:15:48.767Z,78.75
2023-03-24T09:18:18.405Z,78.82
2023-03-24T09:20:47.392Z,78.45
2023-03-24T09:23:16.363Z,79.81
2023-03-24T09:25:45.106Z,79.09
2023-03-24T09:28:16.186Z,79.78
2023-03-24T09:30:45.279Z,79.72
2023-03-24T09:33:14.019Z,78.25
2023-03-24T09:35:43.053Z,78.55
2023-03-24T09:38:12.266Z,77.41
2023-03-24T09:40:41.824Z,75.29
2023-03-24T09:43:21.967Z,74.04
2023-03-24T09:45:53.843Z,74.25
2023-03-24T09:48:32.905Z,75.03
2023-03-24T09:51:05.320Z,74.97
2023-03-24T09:53:44.362Z,74.20
2023-03-24T09:56:17.390Z,74.21
2023-03-24T09:58:54.459Z,75.04
2023-03-24T10:01:23.314Z,75.19
2023-03-24T10:03:51.763Z,75.65
2023-03-24T10:06:26.615Z,75.45
2023-03-24T10:09:14.745Z,75.48
2023-03-24T10:11:51.231Z,75.31
2023-03-24T10:14:39.498Z,75.76
2023-03-24T10:17:21.897Z,75.78
2023-03-24T10:20:00.290Z,75.71
2023-03-24T10:22:37.625Z,76.52
2023-03-24T10:25:16.075Z,76.11
2023-03-24T10:27:50.851Z,77.04
2023-03-24T10:30:24.524Z,76.89
2023-03-24T10:32:54.741Z,77.29
2023-03-24T10:35:28.989Z,77.21
2023-03-24T10:38:02.176Z,76.23
2023-03-24T10:40:35.026Z,76.36
2023-03-24T10:43:09.793Z,75.09
2023-03-24T10:45:42.982Z,74.46
2023-03-24T10:48:14.937Z,74.13
2023-03-24T10:50:46.188Z,74.93
2023-03-24T10:53:20.401Z,75.09
2023-03-24T10:55:51.797Z,75.75
2023-03-24T10:58:31.195Z,75.71
2023-03-24T11:01:01.776Z,75.06
2023-03-24T11:03:33.096Z,73.88
2023-03-24T11:06:03.901Z,73.79
2023-03-24T11:08:35.632Z,74.21
2023-03-24T11:11:16.480Z,74.33
2023-03-24T11:13:55.219Z,74.45
2023-03-24T11:16:30.213Z,73.67
2023-03-24T11:19:01.609Z,72.06
2023-03-24T11:21:32.480Z,72.20
2023-03-24T11:24:02.979Z,71.80
2023-03-24T11:26:34.712Z,71.72
2023-03-24T11:29:07.600Z,70.92
2023-03-24T11:31:40.091Z,70.89
2023-03-24T11:34:11.818Z,70.27
2023-03-24T11:36:46.797Z,70.75
2023-03-24T11:39:21.369Z,70.94
2023-03-24T11:42:05.069Z,72.30
2023-03-24T11:44:45.543Z,71.82
2023-03-24T11:47:25.152Z,72.57
2023-03-24T11:50:05.228Z,73.68
2023-03-24T11:52:39.724Z,73.47
2023-03-24T11:55:17.474Z,72.83
2023-03-24T11:57:55.621Z,71.91
2023-03-24T12:00:29.844Z,71.13
2023-03-24T12:03:37.299Z,71.31
2023-03-24T12:06:22.645Z,71.77
2023-03-24T12:09:06.114Z,71.84
2023-03-24T12:11:50.756Z,71.44
2023-03-24T12:14:29.440Z,70.58
2023-03-24T12:17:03.726Z,71.17
2023-03-24T12:20:14.618Z,71.86
2023-03-24T12:22:56.128Z,72.25
2023-03-24T12:26:01.426Z,72.22
2023-03-24T12:28:53.455Z,71.84
2023-03-24T12:31:44.083Z,71.20
2023-03-24T12:34:46.082Z,71.95
2023-03-24T12:37:26.653Z,72.39
2023-03-24T12:40:12.946Z,73.32
2023-03-24T12:42:44.476Z,73.70
2023-03-24T12:45:27.997Z,73.44
2023-03-24T12:48:15.470Z,72.48
2023-03-24T12:51:00.104Z,72.75
2023-03-24T12:53:45.059Z,71.79
2023-03-24T12:56:18.470Z,71.60
2023-03-24T12:58:51.124Z,71.50
2023-03-24T13:01:27.059Z,70.95
2023-03-24T13:04:05.513Z,71.79
2023-03-24T13:06:40.326Z,71.63
2023-03-24T13:09:21.061Z,68.15
2023-03-24T13:11:54.687Z,67.92
2023-03-24T13:14:29.865Z,67.19
2023-03-24T13:17:06.042Z,67.69
2023-03-24T13:19:37.804Z,67.66
2023-03-24T13:22:12.890Z,68.47
2023-03-24T13:24:42.871Z,68.94
2023-03-24T13:27:17.680Z,68.78
2023-03-24T13:30:09.048Z,69.72
2023-03-24T13:32:41.788Z,69.48
2023-03-24T13:35:21.792Z,70.03
2023-03-24T13:37:55.559Z,70.89
2023-03-24T13:40:28.078Z,70.54
2023-03-24T13:42:58.573Z,70.98
2023-03-24T13:45:40.718Z,72.30
2023-03-24T13:48:25.895Z,71.20
2023-03-24T13:51:00.644Z,70.14
2023-03-24T13:53:41.188Z,69.37
2023-03-24T13:56:13.475Z,70.03
2023-03-24T13:58:52.829Z,69.36
2023-03-24T14:01:38.761Z,69.79
2023-03-24T14:04:29.110Z,68.89
2023-03-24T14:06:59.919Z,69.27
2023-03-24T14:09:30.733Z,68.87
2023-03-24T14:12:21.441Z,67.45
2023-03-24T14:15:19.232Z,67.62
2023-03-24T14:17:50.627Z,68.31
2023-03-24T14:20:41.180Z,70.45
2023-03-24T14:23:24.596Z,68.48
2023-03-24T14:25:56.521Z,68.42
2023-03-24T14:28:38.609Z,68.63
2023-03-24T14:31:20.797Z,68.72
2023-03-24T14:34:10.953Z,68.85
2023-03-24T14:36:42.440Z,69.41
2023-03-24T14:39:22.136Z,69.69
2023-03-24T14:41:52.638Z,69.51
2023-03-24T14:44:56.966Z,69.62
2023-03-24T14:47:29.867Z,68.92
2023-03-24T14:50:01.253Z,70.29
2023-03-24T14:52:36.581Z,69.27
2023-03-24T14:55:09.037Z,70.02
2023-03-24T14:57:41.915Z,70.44
2023-03-24T15:00:20.566Z,70.13
2023-03-24T15:02:51.652Z,69.86
2023-03-24T15:05:26.063Z,70.31
2023-03-24T15:08:12.798Z,70.10
2023-03-24T15:10:50.073Z,69.67
2023-03-24T15:13:34.098Z,69.21
2023-03-24T15:16:08.663Z,69.98
2023-03-24T15:18:40.365Z,69.39
2023-03-24T15:21:17.777Z,70.09
2023-03-24T15:23:49.102Z,70.44
2023-03-24T15:26:18.787Z,69.31
2023-03-24T15:28:47.434Z,69.67
2023-03-24T15:31:17.258Z,70.47
2023-03-24T15:33:47.029Z,69.89
2023-03-24T15:36:18.825Z,69.04
2023-03-24T15:38:50.827Z,69.57
2023-03-24T15:41:21.712Z,69.92
2023-03-24T15:43:53.692Z,69.17
2023-03-24T15:46:27.536Z,69.56
2023-03-24T15:48:57.873Z,68.65
2023-03-24T15:51:48.879Z,70.07
2023-03-24T15:54:24.403Z,70.08
2023-03-24T15:57:17.258Z,70.92
2023-03-24T15:59:49.113Z,71.67
2023-03-24T16:02:38.981Z,72.41
2023-03-24T16:05:21.982Z,72.86
2023-03-24T16:07:58.816Z,72.65
2023-03-24T16:10:39.312Z,72.62
2023-03-24T16:13:18.268Z,73.07
2023-03-24T16:15:49.456Z,72.92
2023-03-24T16:18:25.015Z,72.10
2023-03-24T16:20:53.440Z,71.91
2023-03-24T16:23:21.720Z,70.78
2023-03-24T16:25:50.052Z,70.00
2023-03-24T16:28:21.819Z,69.83
2023-03-24T16:30:57.835Z,69.55
2023-03-24T16:33:28.382Z,69.72
2023-03-24T16:35:56.786Z,69.84
2023-03-24T16:38:25.101Z,70.12
2023-03-24T16:40:56.653Z,69.77
2023-03-24T16:43:27.361Z,68.95
2023-03-24T16:45:55.921Z,68.64
2023-03-24T16:48:24.321Z,68.94
2023-03-24T16:50:55.955Z,69.15
2023-03-24T16:53:24.325Z,67.63
2023-03-24T16:55:52.670Z,66.78
2023-03-24T16:58:21.082Z,67.33
2023-03-24T17:00:50.164Z,67.60
2023-03-24T17:03:19.007Z,67.64
2023-03-24T17:05:51.152Z,68.03
2023-03-24T17:08:20.944Z,68.22
2023-03-24T17:10:53.006Z,68.45
2023-03-24T17:13:23.595Z,69.14
2023-03-24T17:15:52.590Z,69.35
2023-03-24T17:18:21.492Z,70.31
2023-03-24T17:20:50.101Z,70.29
2023-03-24T17:23:20.193Z,70.39
2023-03-24T17:25:48.721Z,70.69
2023-03-24T17:28:18.323Z,71.01
2023-03-24T17:30:47.009Z,71.04
2023-03-24T17:33:15.876Z,71.10
2023-03-24T17:35:46.640Z,71.38
2023-03-24T17:38:16.598Z,71.39
2023-03-24T17:40:47.527Z,72.22
2023-03-24T17:43:16.659Z,71.40
2023-03-24T17:45:45.013Z,71.79
2023-03-24T17:48:13.389Z,71.23
2023-03-24T17:50:42.094Z,71.23
2023-03-24T17:53:13.641Z,71.28
2023-03-24T17:55:42.653Z,70.90
2023-03-24T17:58:12.281Z,70.69
2023-03-24T18:00:41.475Z,71.01
2023-03-24T18:03:09.843Z,71.26
2023-03-24T18:05:38.227Z,72.11
2023-03-24T18:08:07.384Z,72.84
2023-03-24T18:10:36.915Z,73.00
2023-03-24T18:13:06.008Z,73.57
2023-03-24T18:15:36.754Z,74.27
2023-03-24T18:18:05.863Z,74.63
2023-03-24T18:20:36.373Z,74.85
2023-03-24T18:23:04.826Z,75.27
2023-03-24T18:25:33.799Z,75.39
2023-03-24T18:28:02.568Z,75.36
2023-03-24T18:30:32.244Z,75.26
2023-03-24T18:33:02.292Z,75.50
2023-03-24T18:35:30.733Z,75.59
2023-03-24T18:37:59.105Z,75.59
2023-03-24T18:40:27.646Z,75.05
2023-03-24T18:42:55.946Z,75.39
2023-03-24T18:45:24.293Z,75.19
2023-03-24T18:47:52.707Z,75.35
2023-03-24T18:50:22.453Z,75.58
2023-03-24T18:52:50.819Z,75.77
2023-03-24T18:55:20.845Z,75.82
2023-03-24T18:57:49.119Z,76.28
2023-03-24T19:00:20.162Z,76.24
2023-03-24T19:02:48.669Z,76.21
2023-03-24T19:05:17.213Z,76.10
2023-03-24T19:07:48.529Z,75.39
2023-03-24T19:10:17.135Z,75.55
2023-03-24T19:12:45.688Z,75.15
2023-03-24T19:15:14.604Z,75.04
2023-03-24T19:17:42.911Z,75.05
2023-03-24T19:20:12.745Z,74.55
2023-03-24T19:22:41.787Z,74.52
2023-03-24T19:25:11.572Z,74.65
2023-03-24T19:27:39.914Z,74.46
2023-03-24T19:30:09.973Z,74.70
2023-03-24T19:32:38.341Z,74.80
2023-03-24T19:35:08.257Z,74.82
2023-03-24T19:37:37.681Z,74.93
2023-03-24T19:40:11.441Z,74.65
2023-03-24T19:42:42.000Z,74.66
2023-03-24T19:45:12.313Z,74.79
2023-03-24T19:47:40.903Z,74.89
2023-03-24T19:50:11.295Z,75.00
2023-03-24T19:52:39.766Z,75.03
2023-03-24T19:55:08.974Z,75.30
2023-03-24T19:57:37.587Z,75.53
2023-03-24T20:00:11.752Z,75.33
2023-03-24T20:02:40.386Z,75.23
2023-03-24T20:05:10.836Z,75.25
2023-03-24T20:07:39.786Z,75.44
2023-03-24T20:10:09.921Z,75.70
2023-03-24T20:12:38.369Z,75.76
2023-03-24T20:15:09.589Z,75.14
2023-03-24T20:17:39.370Z,75.38
2023-03-24T20:20:11.301Z,75.55
2023-03-24T20:22:42.108Z,75.75
2023-03-24T20:25:12.401Z,75.93
2023-03-24T20:27:41.215Z,76.15
2023-03-24T20:30:13.650Z,76.23
2023-03-24T20:32:42.151Z,76.65
2023-03-24T20:35:11.854Z,76.54
2023-03-24T20:37:40.192Z,77.08
2023-03-24T20:40:10.775Z,77.25
2023-03-24T20:42:39.922Z,77.66
2023-03-24T20:45:12.717Z,78.24
2023-03-24T20:47:41.307Z,78.48
2023-03-24T20:50:11.513Z,78.34
2023-03-24T20:52:41.337Z,78.52
2023-03-24T20:55:11.533Z,78.70
2023-03-24T20:57:40.223Z,78.80
2023-03-24T21:00:14.326Z,78.93
2023-03-24T21:02:43.616Z,78.69
2023-03-24T21:05:12.343Z,78.84
2023-03-24T21:07:43.685Z,78.83
2023-03-24T21:10:12.740Z,78.94
2023-03-24T21:12:52.330Z,79.08
2023-03-24T21:15:27.524Z,78.63
2023-03-24T21:17:56.142Z,78.86
2023-03-24T21:20:26.850Z,79.03
2023-03-24T21:22:55.733Z,79.36
2023-03-24T21:25:27.512Z,79.25
2023-03-24T21:27:56.868Z,79.44
2023-03-24T21:30:27.925Z,79.39
2023-03-24T21:32:58.088Z,79.40
2023-03-24T21:35:26.586Z,79.49
2023-03-24T21:37:56.142Z,79.79
2023-03-24T21:40:26.577Z,79.68
2023-03-24T21:42:55.915Z,79.78
2023-03-24T21:45:27.569Z,79.59
2023-03-24T21:47:56.069Z,79.71
2023-03-24T21:50:25.788Z,79.40
2023-03-24T21:52:55.454Z,79.54
2023-03-24T21:55:26.904Z,79.91
2023-03-24T21:57:56.686Z,79.59
2023-03-24T22:00:29.978Z,79.53
2023-03-24T22:02:58.556Z,79.84
2023-03-24T22:05:27.726Z,79.77
2023-03-24T22:07:57.017Z,80.04
2023-03-24T22:10:29.647Z,79.74
2023-03-24T22:12:58.286Z,79.68
2023-03-24T22:15:29.409Z,79.63
2023-03-24T22:17:58.865Z,79.51
2023-03-24T22:20:28.132Z,79.89
2023-03-24T22:22:56.588Z,80.24
2023-03-24T22:25:24.996Z,80.25
2023-03-24T22:27:56.046Z,80.42
2023-03-24T22:30:24.637Z,80.80
2023-03-24T22:32:54.282Z,80.69
2023-03-24T22:35:23.328Z,80.69
2023-03-24T22:37:51.734Z,80.94
2023-03-24T22:40:20.217Z,80.77
2023-03-24T22:42:48.545Z,80.79
2023-03-24T22:45:17.180Z,81.21
2023-03-24T22:47:45.545Z,81.24
2023-03-24T22:50:15.316Z,81.17
2023-03-24T22:52:43.663Z,81.78
2023-03-24T22:55:12.048Z,81.63
2023-03-24T22:57:40.445Z,81.56
2023-03-24T23:00:10.941Z,81.84
2023-03-24T23:02:39.621Z,81.83
2023-03-24T23:05:08.413Z,81.78
2023-03-24T23:07:38.340Z,81.76
2023-03-24T23:10:08.442Z,81.88
2023-03-24T23:12:37.662Z,82.26
2023-03-24T23:15:07.719Z,82.13
2023-03-24T23:17:36.466Z,82.20
2023-03-24T23:20:07.721Z,82.07
2023-03-24T23:22:38.356Z,82.35
2023-03-24T23:25:08.061Z,82.45
2023-03-24T23:27:37.522Z,82.42
2023-03-24T23:30:08.876Z,82.59
2023-03-24T23:32:38.084Z,82.53
2023-03-24T23:35:09.151Z,82.38
2023-03-24T23:37:39.675Z,82.34
2023-03-24T23:40:12.861Z,82.09
2023-03-24T23:42:42.785Z,82.11
2023-03-24T23:45:14.781Z,82.24
2023-03-24T23:47:44.133Z,82.41
2023-03-24T23:50:13.533Z,82.37
2023-03-24T23:52:43.972Z,82.26
2023-03-24T23:55:13.010Z,82.34
2023-03-24T23:57:42.731Z,82.43
